George West, Texas
Current Conditions -  °F | °C
As of 11:55 AM on Friday 21 Nov 2014 (Local Time) from KBEA Reporting Station
Overcast Overcast  
Wind Chill: 73°   Ceiling: 900
Heat Index: 73°   Visibility: 10mi
Dew Point: 71°   Wind: 10mph
Humidity: 93%   Direction: 160°SSE
Pressure: 30.07"   Gusts: NA
Location:  28.33°N, 98.12°W
Report Text: KBEA 211755Z AUTO 16009KT 10SM BKN009 BKN017 OVC041 23/22 A3007 RMK AO2 T02300218 10230 20180
Loading
Personal Weather Stations






























Interactive Weather Map New forecast layout! Learn more

10-Day Weather Forecast

Advertisements
Track Severe Weather on mobile